sensor_id;sensor_type;location;lat;lon;timestamp;P1;durP1;ratioP1;P2;durP2;ratioP2
2434;SDS011;1228;51.022;6.764;2023-04-25T00:01:45;8.30;;;7.67;;
2434;SDS011;1228;51.022;6.764;2023-04-25T00:04:11;13.97;;;7.63;;
2434;SDS011;1228;51.022;6.764;2023-04-25T00:06:37;9.17;;;7.33;;
2434;SDS011;1228;51.022;6.764;2023-04-25T00:09:06;9.30;;;8.10;;
2434;SDS011;1228;51.022;6.764;2023-04-25T00:11:36;7.43;;;6.83;;
2434;SDS011;1228;51.022;6.764;2023-04-25T00:14:02;8.67;;;6.60;;
2434;SDS011;1228;51.022;6.764;2023-04-25T00:16:29;7.17;;;6.67;;
2434;SDS011;1228;51.022;6.764;2023-04-25T00:18:58;8.10;;;7.47;;
2434;SDS011;1228;51.022;6.764;2023-04-25T00:21:23;10.60;;;7.23;;
2434;SDS011;1228;51.022;6.764;2023-04-25T00:23:49;9.17;;;8.13;;
2434;SDS011;1228;51.022;6.764;2023-04-25T00:26:15;10.53;;;7.37;;
2434;SDS011;1228;51.022;6.764;2023-04-25T00:28:40;8.03;;;7.23;;
2434;SDS011;1228;51.022;6.764;2023-04-25T00:31:06;8.10;;;7.40;;
2434;SDS011;1228;51.022;6.764;2023-04-25T00:33:32;8.17;;;7.57;;
2434;SDS011;1228;51.022;6.764;2023-04-25T00:35:57;10.10;;;7.27;;
2434;SDS011;1228;51.022;6.764;2023-04-25T00:38:23;10.23;;;6.87;;
2434;SDS011;1228;51.022;6.764;2023-04-25T00:40:48;7.57;;;6.93;;
2434;SDS011;1228;51.022;6.764;2023-04-25T00:43:14;8.30;;;7.13;;
2434;SDS011;1228;51.022;6.764;2023-04-25T00:45:40;9.23;;;6.83;;
2434;SDS011;1228;51.022;6.764;2023-04-25T00:48:06;10.90;;;7.00;;
2434;SDS011;1228;51.022;6.764;2023-04-25T00:50:33;16.30;;;7.10;;
2434;SDS011;1228;51.022;6.764;2023-04-25T00:52:59;7.70;;;7.10;;
2434;SDS011;1228;51.022;6.764;2023-04-25T00:55:25;8.10;;;7.37;;
2434;SDS011;1228;51.022;6.764;2023-04-25T00:57:51;8.77;;;7.60;;
2434;SDS011;1228;51.022;6.764;2023-04-25T01:00:17;6.97;;;6.47;;
2434;SDS011;1228;51.022;6.764;2023-04-25T01:02:43;8.60;;;7.70;;
2434;SDS011;1228;51.022;6.764;2023-04-25T01:05:10;10.40;;;8.37;;
2434;SDS011;1228;51.022;6.764;2023-04-25T01:07:37;8.20;;;7.70;;
2434;SDS011;1228;51.022;6.764;2023-04-25T01:10:03;8.33;;;7.63;;
2434;SDS011;1228;51.022;6.764;2023-04-25T01:12:31;13.27;;;7.50;;
2434;SDS011;1228;51.022;6.764;2023-04-25T01:14:56;7.83;;;6.93;;
2434;SDS011;1228;51.022;6.764;2023-04-25T01:17:22;8.47;;;7.93;;
2434;SDS011;1228;51.022;6.764;2023-04-25T01:19:48;9.87;;;7.97;;
2434;SDS011;1228;51.022;6.764;2023-04-25T01:22:15;7.57;;;7.07;;
2434;SDS011;1228;51.022;6.764;2023-04-25T01:24:41;8.90;;;8.00;;
2434;SDS011;1228;51.022;6.764;2023-04-25T01:27:08;7.50;;;6.90;;
2434;SDS011;1228;51.022;6.764;2023-04-25T01:29:34;15.30;;;7.63;;
2434;SDS011;1228;51.022;6.764;2023-04-25T01:32:00;11.37;;;7.97;;
2434;SDS011;1228;51.022;6.764;2023-04-25T01:34:26;8.63;;;7.87;;
2434;SDS011;1228;51.022;6.764;2023-04-25T01:36:52;8.23;;;7.50;;
2434;SDS011;1228;51.022;6.764;2023-04-25T01:39:18;7.90;;;7.10;;
2434;SDS011;1228;51.022;6.764;2023-04-25T01:41:48;8.20;;;7.17;;
2434;SDS011;1228;51.022;6.764;2023-04-25T01:44:14;7.60;;;7.03;;
2434;SDS011;1228;51.022;6.764;2023-04-25T01:46:40;15.00;;;7.37;;
2434;SDS011;1228;51.022;6.764;2023-04-25T01:49:06;7.73;;;7.20;;
2434;SDS011;1228;51.022;6.764;2023-04-25T01:51:32;8.50;;;7.20;;
2434;SDS011;1228;51.022;6.764;2023-04-25T01:53:58;7.57;;;7.13;;
2434;SDS011;1228;51.022;6.764;2023-04-25T01:56:23;13.70;;;7.43;;
2434;SDS011;1228;51.022;6.764;2023-04-25T01:58:49;10.10;;;9.40;;
2434;SDS011;1228;51.022;6.764;2023-04-25T02:01:16;8.60;;;7.97;;
2434;SDS011;1228;51.022;6.764;2023-04-25T02:03:42;7.87;;;7.27;;
2434;SDS011;1228;51.022;6.764;2023-04-25T02:06:08;15.33;;;7.43;;
2434;SDS011;1228;51.022;6.764;2023-04-25T02:08:34;7.53;;;7.00;;
2434;SDS011;1228;51.022;6.764;2023-04-25T02:10:59;10.63;;;8.23;;
2434;SDS011;1228;51.022;6.764;2023-04-25T02:13:25;10.63;;;8.10;;
2434;SDS011;1228;51.022;6.764;2023-04-25T02:15:51;11.80;;;7.73;;
2434;SDS011;1228;51.022;6.764;2023-04-25T02:18:16;7.70;;;7.17;;
2434;SDS011;1228;51.022;6.764;2023-04-25T02:20:42;8.37;;;7.87;;
2434;SDS011;1228;51.022;6.764;2023-04-25T02:23:08;8.60;;;7.90;;
2434;SDS011;1228;51.022;6.764;2023-04-25T02:25:34;8.33;;;7.43;;
2434;SDS011;1228;51.022;6.764;2023-04-25T02:27:59;9.67;;;7.00;;
2434;SDS011;1228;51.022;6.764;2023-04-25T02:30:25;8.83;;;8.07;;
2434;SDS011;1228;51.022;6.764;2023-04-25T02:32:51;10.00;;;7.03;;
2434;SDS011;1228;51.022;6.764;2023-04-25T02:35:16;8.53;;;7.83;;
2434;SDS011;1228;51.022;6.764;2023-04-25T02:37:42;8.70;;;8.07;;
2434;SDS011;1228;51.022;6.764;2023-04-25T02:40:08;7.90;;;7.10;;
2434;SDS011;1228;51.022;6.764;2023-04-25T02:42:34;10.67;;;6.27;;
2434;SDS011;1228;51.022;6.764;2023-04-25T02:45:00;7.13;;;6.53;;
2434;SDS011;1228;51.022;6.764;2023-04-25T02:47:26;10.87;;;6.63;;
2434;SDS011;1228;51.022;6.764;2023-04-25T02:49:51;9.13;;;7.70;;
2434;SDS011;1228;51.022;6.764;2023-04-25T02:52:17;7.87;;;7.10;;
2434;SDS011;1228;51.022;6.764;2023-04-25T02:54:43;7.20;;;6.60;;
2434;SDS011;1228;51.022;6.764;2023-04-25T02:57:08;9.17;;;7.47;;
2434;SDS011;1228;51.022;6.764;2023-04-25T02:59:34;9.03;;;8.23;;
2434;SDS011;1228;51.022;6.764;2023-04-25T03:02:00;8.23;;;7.20;;
2434;SDS011;1228;51.022;6.764;2023-04-25T03:04:26;7.47;;;6.97;;
2434;SDS011;1228;51.022;6.764;2023-04-25T03:06:51;7.33;;;6.70;;
2434;SDS011;1228;51.022;6.764;2023-04-25T03:09:18;11.17;;;7.80;;
2434;SDS011;1228;51.022;6.764;2023-04-25T03:11:44;8.90;;;8.20;;
2434;SDS011;1228;51.022;6.764;2023-04-25T03:14:10;9.93;;;7.53;;
2434;SDS011;1228;51.022;6.764;2023-04-25T03:16:37;7.63;;;7.03;;
2434;SDS011;1228;51.022;6.764;2023-04-25T03:19:02;8.43;;;7.53;;
2434;SDS011;1228;51.022;6.764;2023-04-25T03:21:29;8.27;;;7.40;;
2434;SDS011;1228;51.022;6.764;2023-04-25T03:23:58;8.87;;;7.33;;
2434;SDS011;1228;51.022;6.764;2023-04-25T03:26:24;7.73;;;7.03;;
2434;SDS011;1228;51.022;6.764;2023-04-25T03:28:49;10.53;;;6.80;;
2434;SDS011;1228;51.022;6.764;2023-04-25T03:31:15;7.07;;;6.47;;
2434;SDS011;1228;51.022;6.764;2023-04-25T03:33:41;6.50;;;6.10;;
2434;SDS011;1228;51.022;6.764;2023-04-25T03:36:06;8.77;;;7.57;;
2434;SDS011;1228;51.022;6.764;2023-04-25T03:38:32;8.30;;;7.23;;
2434;SDS011;1228;51.022;6.764;2023-04-25T03:40:58;13.23;;;7.17;;
2434;SDS011;1228;51.022;6.764;2023-04-25T03:43:23;12.73;;;9.67;;
2434;SDS011;1228;51.022;6.764;2023-04-25T03:45:49;8.93;;;8.23;;
2434;SDS011;1228;51.022;6.764;2023-04-25T03:48:15;7.03;;;6.53;;
2434;SDS011;1228;51.022;6.764;2023-04-25T03:50:41;10.93;;;8.27;;
2434;SDS011;1228;51.022;6.764;2023-04-25T03:53:06;7.77;;;7.07;;
2434;SDS011;1228;51.022;6.764;2023-04-25T03:55:32;8.83;;;7.37;;
2434;SDS011;1228;51.022;6.764;2023-04-25T03:57:57;7.27;;;6.73;;
2434;SDS011;1228;51.022;6.764;2023-04-25T04:00:24;9.53;;;7.80;;
2434;SDS011;1228;51.022;6.764;2023-04-25T04:02:50;16.07;;;8.53;;
2434;SDS011;1228;51.022;6.764;2023-04-25T04:05:16;8.70;;;7.13;;
2434;SDS011;1228;51.022;6.764;2023-04-25T04:07:41;7.73;;;7.03;;
2434;SDS011;1228;51.022;6.764;2023-04-25T04:10:08;8.47;;;7.53;;
2434;SDS011;1228;51.022;6.764;2023-04-25T04:12:34;9.53;;;8.03;;
2434;SDS011;1228;51.022;6.764;2023-04-25T04:15:00;10.17;;;9.17;;
2434;SDS011;1228;51.022;6.764;2023-04-25T04:17:30;12.50;;;10.90;;
2434;SDS011;1228;51.022;6.764;2023-04-25T04:19:55;12.00;;;7.87;;
2434;SDS011;1228;51.022;6.764;2023-04-25T04:22:21;12.10;;;7.20;;
2434;SDS011;1228;51.022;6.764;2023-04-25T04:24:48;9.40;;;8.57;;
2434;SDS011;1228;51.022;6.764;2023-04-25T04:27:14;10.90;;;7.90;;
2434;SDS011;1228;51.022;6.764;2023-04-25T04:29:42;10.43;;;8.80;;
2434;SDS011;1228;51.022;6.764;2023-04-25T04:32:08;12.90;;;8.47;;
2434;SDS011;1228;51.022;6.764;2023-04-25T04:34:34;8.40;;;7.67;;
2434;SDS011;1228;51.022;6.764;2023-04-25T04:37:00;9.57;;;8.17;;
2434;SDS011;1228;51.022;6.764;2023-04-25T04:39:25;8.57;;;7.90;;
2434;SDS011;1228;51.022;6.764;2023-04-25T04:41:51;9.47;;;8.53;;
2434;SDS011;1228;51.022;6.764;2023-04-25T04:44:17;8.50;;;7.67;;
2434;SDS011;1228;51.022;6.764;2023-04-25T04:46:42;12.67;;;7.93;;
2434;SDS011;1228;51.022;6.764;2023-04-25T04:49:09;8.50;;;7.70;;
2434;SDS011;1228;51.022;6.764;2023-04-25T04:51:35;15.00;;;7.90;;
2434;SDS011;1228;51.022;6.764;2023-04-25T04:54:02;11.43;;;7.10;;
2434;SDS011;1228;51.022;6.764;2023-04-25T04:56:28;9.90;;;8.90;;
2434;SDS011;1228;51.022;6.764;2023-04-25T04:58:56;7.20;;;6.63;;
2434;SDS011;1228;51.022;6.764;2023-04-25T05:01:22;7.47;;;6.97;;
2434;SDS011;1228;51.022;6.764;2023-04-25T05:03:48;10.33;;;7.60;;
2434;SDS011;1228;51.022;6.764;2023-04-25T05:06:14;8.17;;;7.57;;
2434;SDS011;1228;51.022;6.764;2023-04-25T05:08:41;10.87;;;8.23;;
2434;SDS011;1228;51.022;6.764;2023-04-25T05:11:06;9.47;;;6.80;;
2434;SDS011;1228;51.022;6.764;2023-04-25T05:13:32;8.37;;;7.63;;
2434;SDS011;1228;51.022;6.764;2023-04-25T05:15:57;7.77;;;6.97;;
2434;SDS011;1228;51.022;6.764;2023-04-25T05:18:23;8.13;;;6.97;;
2434;SDS011;1228;51.022;6.764;2023-04-25T05:20:48;8.40;;;7.13;;
2434;SDS011;1228;51.022;6.764;2023-04-25T05:23:14;7.63;;;6.43;;
2434;SDS011;1228;51.022;6.764;2023-04-25T05:25:40;10.43;;;7.63;;
2434;SDS011;1228;51.022;6.764;2023-04-25T05:28:05;18.07;;;9.30;;
2434;SDS011;1228;51.022;6.764;2023-04-25T05:30:31;8.13;;;7.13;;
2434;SDS011;1228;51.022;6.764;2023-04-25T05:32:57;10.87;;;7.73;;
2434;SDS011;1228;51.022;6.764;2023-04-25T05:35:22;8.67;;;7.97;;
2434;SDS011;1228;51.022;6.764;2023-04-25T05:37:48;12.33;;;8.07;;
2434;SDS011;1228;51.022;6.764;2023-04-25T05:40:14;14.77;;;9.40;;
2434;SDS011;1228;51.022;6.764;2023-04-25T05:42:39;11.47;;;10.37;;
2434;SDS011;1228;51.022;6.764;2023-04-25T05:45:05;14.63;;;10.20;;
2434;SDS011;1228;51.022;6.764;2023-04-25T05:47:31;8.47;;;7.77;;
2434;SDS011;1228;51.022;6.764;2023-04-25T05:49:56;12.70;;;8.70;;
2434;SDS011;1228;51.022;6.764;2023-04-25T05:52:22;9.37;;;7.03;;
2434;SDS011;1228;51.022;6.764;2023-04-25T05:54:48;8.20;;;7.30;;
2434;SDS011;1228;51.022;6.764;2023-04-25T05:57:23;12.27;;;8.07;;
2434;SDS011;1228;51.022;6.764;2023-04-25T05:59:50;8.90;;;7.47;;
2434;SDS011;1228;51.022;6.764;2023-04-25T06:02:16;6.87;;;6.30;;
2434;SDS011;1228;51.022;6.764;2023-04-25T06:04:42;11.60;;;7.07;;
2434;SDS011;1228;51.022;6.764;2023-04-25T06:07:08;10.23;;;6.00;;
2434;SDS011;1228;51.022;6.764;2023-04-25T06:09:34;8.80;;;6.80;;
2434;SDS011;1228;51.022;6.764;2023-04-25T06:11:59;7.97;;;7.57;;
2434;SDS011;1228;51.022;6.764;2023-04-25T06:14:26;7.00;;;6.30;;
2434;SDS011;1228;51.022;6.764;2023-04-25T06:16:52;13.13;;;7.47;;
2434;SDS011;1228;51.022;6.764;2023-04-25T06:19:18;8.70;;;7.37;;
2434;SDS011;1228;51.022;6.764;2023-04-25T06:21:43;12.07;;;7.07;;
2434;SDS011;1228;51.022;6.764;2023-04-25T06:24:09;16.87;;;7.90;;
2434;SDS011;1228;51.022;6.764;2023-04-25T06:26:35;11.20;;;7.00;;
2434;SDS011;1228;51.022;6.764;2023-04-25T06:29:01;8.73;;;6.33;;
2434;SDS011;1228;51.022;6.764;2023-04-25T06:31:26;9.40;;;7.93;;
2434;SDS011;1228;51.022;6.764;2023-04-25T06:33:53;7.20;;;6.50;;
2434;SDS011;1228;51.022;6.764;2023-04-25T06:36:22;6.47;;;6.00;;
2434;SDS011;1228;51.022;6.764;2023-04-25T06:38:53;25.70;;;15.27;;
2434;SDS011;1228;51.022;6.764;2023-04-25T06:41:19;7.07;;;6.43;;
2434;SDS011;1228;51.022;6.764;2023-04-25T06:43:45;7.43;;;6.60;;
2434;SDS011;1228;51.022;6.764;2023-04-25T06:46:11;10.13;;;7.33;;
2434;SDS011;1228;51.022;6.764;2023-04-25T06:48:36;10.13;;;6.80;;
2434;SDS011;1228;51.022;6.764;2023-04-25T06:51:02;7.87;;;6.37;;
2434;SDS011;1228;51.022;6.764;2023-04-25T06:53:28;9.40;;;6.03;;
2434;SDS011;1228;51.022;6.764;2023-04-25T06:55:54;7.80;;;6.83;;
2434;SDS011;1228;51.022;6.764;2023-04-25T06:58:20;7.47;;;6.70;;
2434;SDS011;1228;51.022;6.764;2023-04-25T07:00:45;11.63;;;5.73;;
2434;SDS011;1228;51.022;6.764;2023-04-25T07:03:11;6.33;;;5.73;;
2434;SDS011;1228;51.022;6.764;2023-04-25T07:05:36;10.17;;;6.17;;
2434;SDS011;1228;51.022;6.764;2023-04-25T07:08:02;13.37;;;6.37;;
2434;SDS011;1228;51.022;6.764;2023-04-25T07:10:28;6.70;;;5.87;;
2434;SDS011;1228;51.022;6.764;2023-04-25T07:12:53;8.53;;;6.10;;
2434;SDS011;1228;51.022;6.764;2023-04-25T07:15:19;6.53;;;6.03;;
2434;SDS011;1228;51.022;6.764;2023-04-25T07:17:45;7.50;;;6.83;;
2434;SDS011;1228;51.022;6.764;2023-04-25T07:20:11;6.93;;;5.90;;
2434;SDS011;1228;51.022;6.764;2023-04-25T07:22:36;6.83;;;6.33;;
2434;SDS011;1228;51.022;6.764;2023-04-25T07:25:02;6.83;;;6.30;;
2434;SDS011;1228;51.022;6.764;2023-04-25T07:27:29;10.17;;;6.43;;
2434;SDS011;1228;51.022;6.764;2023-04-25T07:29:55;6.00;;;5.47;;
2434;SDS011;1228;51.022;6.764;2023-04-25T07:32:20;5.90;;;5.40;;
2434;SDS011;1228;51.022;6.764;2023-04-25T07:34:46;6.43;;;5.10;;
2434;SDS011;1228;51.022;6.764;2023-04-25T07:37:11;6.90;;;5.00;;
2434;SDS011;1228;51.022;6.764;2023-04-25T07:39:38;5.63;;;5.13;;
2434;SDS011;1228;51.022;6.764;2023-04-25T07:42:04;5.10;;;4.80;;
2434;SDS011;1228;51.022;6.764;2023-04-25T07:44:32;7.20;;;6.43;;
2434;SDS011;1228;51.022;6.764;2023-04-25T07:47:03;11.03;;;5.90;;
2434;SDS011;1228;51.022;6.764;2023-04-25T07:49:30;9.00;;;5.20;;
2434;SDS011;1228;51.022;6.764;2023-04-25T07:51:56;5.20;;;4.80;;
2434;SDS011;1228;51.022;6.764;2023-04-25T07:54:21;5.03;;;4.67;;
2434;SDS011;1228;51.022;6.764;2023-04-25T07:56:47;11.63;;;5.77;;
2434;SDS011;1228;51.022;6.764;2023-04-25T07:59:12;4.30;;;4.10;;
2434;SDS011;1228;51.022;6.764;2023-04-25T08:01:38;5.00;;;4.50;;
2434;SDS011;1228;51.022;6.764;2023-04-25T08:04:04;6.37;;;4.47;;
2434;SDS011;1228;51.022;6.764;2023-04-25T08:06:29;5.80;;;5.40;;
2434;SDS011;1228;51.022;6.764;2023-04-25T08:08:56;7.40;;;5.47;;
2434;SDS011;1228;51.022;6.764;2023-04-25T08:11:21;7.57;;;5.13;;
2434;SDS011;1228;51.022;6.764;2023-04-25T08:13:47;5.77;;;5.37;;
2434;SDS011;1228;51.022;6.764;2023-04-25T08:16:12;5.00;;;4.50;;
2434;SDS011;1228;51.022;6.764;2023-04-25T08:18:38;5.73;;;4.67;;
2434;SDS011;1228;51.022;6.764;2023-04-25T08:21:04;6.07;;;4.90;;
2434;SDS011;1228;51.022;6.764;2023-04-25T08:23:29;5.87;;;4.80;;
2434;SDS011;1228;51.022;6.764;2023-04-25T08:25:55;4.80;;;4.30;;
2434;SDS011;1228;51.022;6.764;2023-04-25T08:28:21;8.00;;;4.50;;
2434;SDS011;1228;51.022;6.764;2023-04-25T08:30:47;5.03;;;4.73;;
2434;SDS011;1228;51.022;6.764;2023-04-25T08:33:12;4.67;;;4.37;;
2434;SDS011;1228;51.022;6.764;2023-04-25T08:35:38;5.00;;;4.60;;
2434;SDS011;1228;51.022;6.764;2023-04-25T08:38:03;8.07;;;5.27;;
2434;SDS011;1228;51.022;6.764;2023-04-25T08:40:29;5.33;;;4.13;;
2434;SDS011;1228;51.022;6.764;2023-04-25T08:43:00;5.97;;;4.80;;
2434;SDS011;1228;51.022;6.764;2023-04-25T08:45:28;6.73;;;4.47;;
2434;SDS011;1228;51.022;6.764;2023-04-25T08:47:57;6.90;;;4.87;;
2434;SDS011;1228;51.022;6.764;2023-04-25T08:50:23;5.20;;;4.70;;
2434;SDS011;1228;51.022;6.764;2023-04-25T08:52:51;4.60;;;4.30;;
2434;SDS011;1228;51.022;6.764;2023-04-25T08:55:19;5.10;;;4.50;;
2434;SDS011;1228;51.022;6.764;2023-04-25T08:57:46;7.37;;;4.27;;
2434;SDS011;1228;51.022;6.764;2023-04-25T09:00:12;6.27;;;4.53;;
2434;SDS011;1228;51.022;6.764;2023-04-25T09:02:39;5.37;;;4.97;;
2434;SDS011;1228;51.022;6.764;2023-04-25T09:05:06;4.80;;;4.50;;
2434;SDS011;1228;51.022;6.764;2023-04-25T09:07:34;6.50;;;4.57;;
2434;SDS011;1228;51.022;6.764;2023-04-25T09:10:00;8.47;;;5.07;;
2434;SDS011;1228;51.022;6.764;2023-04-25T09:12:28;9.80;;;4.70;;
2434;SDS011;1228;51.022;6.764;2023-04-25T09:15:01;4.67;;;4.27;;
2434;SDS011;1228;51.022;6.764;2023-04-25T09:17:29;4.50;;;4.13;;
2434;SDS011;1228;51.022;6.764;2023-04-25T09:19:55;4.60;;;4.20;;
2434;SDS011;1228;51.022;6.764;2023-04-25T09:22:30;6.70;;;4.47;;
2434;SDS011;1228;51.022;6.764;2023-04-25T09:24:55;4.70;;;4.40;;
2434;SDS011;1228;51.022;6.764;2023-04-25T09:27:21;4.40;;;4.20;;
2434;SDS011;1228;51.022;6.764;2023-04-25T09:29:47;7.53;;;5.73;;
2434;SDS011;1228;51.022;6.764;2023-04-25T09:32:21;5.97;;;4.67;;
2434;SDS011;1228;51.022;6.764;2023-04-25T09:34:55;5.50;;;4.40;;
2434;SDS011;1228;51.022;6.764;2023-04-25T09:37:22;4.73;;;4.47;;
2434;SDS011;1228;51.022;6.764;2023-04-25T09:39:50;4.20;;;4.00;;
2434;SDS011;1228;51.022;6.764;2023-04-25T09:42:21;5.57;;;5.17;;
2434;SDS011;1228;51.022;6.764;2023-04-25T09:44:48;5.53;;;4.50;;
2434;SDS011;1228;51.022;6.764;2023-04-25T09:47:16;5.43;;;4.57;;
2434;SDS011;1228;51.022;6.764;2023-04-25T09:49:42;5.20;;;4.80;;
2434;SDS011;1228;51.022;6.764;2023-04-25T09:52:09;4.57;;;4.20;;
2434;SDS011;1228;51.022;6.764;2023-04-25T09:54:42;5.40;;;4.57;;
2434;SDS011;1228;51.022;6.764;2023-04-25T09:59:36;6.80;;;4.67;;
2434;SDS011;1228;51.022;6.764;2023-04-25T10:02:05;6.00;;;4.30;;
2434;SDS011;1228;51.022;6.764;2023-04-25T10:04:32;7.40;;;5.00;;
2434;SDS011;1228;51.022;6.764;2023-04-25T10:07:00;6.83;;;5.30;;
2434;SDS011;1228;51.022;6.764;2023-04-25T10:09:28;4.83;;;4.43;;
2434;SDS011;1228;51.022;6.764;2023-04-25T10:11:58;4.83;;;4.43;;
2434;SDS011;1228;51.022;6.764;2023-04-25T10:14:25;4.30;;;3.93;;
2434;SDS011;1228;51.022;6.764;2023-04-25T10:16:51;4.17;;;3.93;;
2434;SDS011;1228;51.022;6.764;2023-04-25T10:19:19;5.23;;;4.40;;
2434;SDS011;1228;51.022;6.764;2023-04-25T10:21:50;4.93;;;4.53;;
2434;SDS011;1228;51.022;6.764;2023-04-25T10:24:36;5.13;;;4.10;;
2434;SDS011;1228;51.022;6.764;2023-04-25T10:27:03;4.70;;;4.30;;
2434;SDS011;1228;51.022;6.764;2023-04-25T10:29:30;4.97;;;4.53;;
2434;SDS011;1228;51.022;6.764;2023-04-25T10:31:55;4.57;;;4.17;;
2434;SDS011;1228;51.022;6.764;2023-04-25T10:34:38;4.27;;;3.87;;
2434;SDS011;1228;51.022;6.764;2023-04-25T10:37:05;6.10;;;5.50;;
2434;SDS011;1228;51.022;6.764;2023-04-25T10:39:35;4.90;;;4.50;;
2434;SDS011;1228;51.022;6.764;2023-04-25T10:42:01;4.60;;;4.20;;
2434;SDS011;1228;51.022;6.764;2023-04-25T10:44:28;4.60;;;4.20;;
2434;SDS011;1228;51.022;6.764;2023-04-25T10:46:58;4.80;;;4.50;;
2434;SDS011;1228;51.022;6.764;2023-04-25T10:49:35;5.07;;;4.67;;
2434;SDS011;1228;51.022;6.764;2023-04-25T10:54:40;6.10;;;4.57;;
2434;SDS011;1228;51.022;6.764;2023-04-25T11:00:18;4.57;;;4.17;;
2434;SDS011;1228;51.022;6.764;2023-04-25T11:02:47;4.67;;;4.27;;
2434;SDS011;1228;51.022;6.764;2023-04-25T11:05:20;4.10;;;3.90;;
2434;SDS011;1228;51.022;6.764;2023-04-25T11:07:54;6.00;;;5.30;;
2434;SDS011;1228;51.022;6.764;2023-04-25T11:10:31;4.40;;;4.17;;
2434;SDS011;1228;51.022;6.764;2023-04-25T11:12:58;5.07;;;4.00;;
2434;SDS011;1228;51.022;6.764;2023-04-25T11:15:24;5.43;;;3.90;;
2434;SDS011;1228;51.022;6.764;2023-04-25T11:17:51;4.00;;;3.80;;
2434;SDS011;1228;51.022;6.764;2023-04-25T11:20:17;4.43;;;4.13;;
2434;SDS011;1228;51.022;6.764;2023-04-25T11:22:44;4.50;;;4.10;;
2434;SDS011;1228;51.022;6.764;2023-04-25T11:25:11;4.27;;;4.00;;
2434;SDS011;1228;51.022;6.764;2023-04-25T11:30:21;4.30;;;3.90;;
2434;SDS011;1228;51.022;6.764;2023-04-25T11:32:47;4.33;;;3.77;;
2434;SDS011;1228;51.022;6.764;2023-04-25T11:35:13;4.00;;;3.80;;
2434;SDS011;1228;51.022;6.764;2023-04-25T11:37:39;5.13;;;4.23;;
2434;SDS011;1228;51.022;6.764;2023-04-25T11:40:05;7.27;;;4.10;;
2434;SDS011;1228;51.022;6.764;2023-04-25T11:42:31;4.03;;;3.73;;
2434;SDS011;1228;51.022;6.764;2023-04-25T11:44:58;4.50;;;4.10;;
2434;SDS011;1228;51.022;6.764;2023-04-25T11:47:30;3.40;;;3.20;;
2434;SDS011;1228;51.022;6.764;2023-04-25T11:50:00;3.57;;;3.30;;
2434;SDS011;1228;51.022;6.764;2023-04-25T11:55:06;4.33;;;3.90;;
2434;SDS011;1228;51.022;6.764;2023-04-25T11:57:33;5.13;;;3.60;;
2434;SDS011;1228;51.022;6.764;2023-04-25T12:00:19;3.50;;;3.30;;
2434;SDS011;1228;51.022;6.764;2023-04-25T12:02:52;4.33;;;3.93;;
2434;SDS011;1228;51.022;6.764;2023-04-25T12:05:19;3.87;;;3.67;;
2434;SDS011;1228;51.022;6.764;2023-04-25T12:07:48;6.87;;;4.73;;
2434;SDS011;1228;51.022;6.764;2023-04-25T12:10:14;6.80;;;3.90;;
2434;SDS011;1228;51.022;6.764;2023-04-25T12:12:41;7.43;;;3.77;;
2434;SDS011;1228;51.022;6.764;2023-04-25T12:15:12;4.00;;;3.70;;
2434;SDS011;1228;51.022;6.764;2023-04-25T12:17:47;3.97;;;3.70;;
2434;SDS011;1228;51.022;6.764;2023-04-25T12:20:18;6.40;;;4.63;;
2434;SDS011;1228;51.022;6.764;2023-04-25T12:22:46;4.17;;;3.83;;
2434;SDS011;1228;51.022;6.764;2023-04-25T12:25:17;4.27;;;3.70;;
2434;SDS011;1228;51.022;6.764;2023-04-25T12:28:14;7.67;;;4.43;;
2434;SDS011;1228;51.022;6.764;2023-04-25T12:33:19;4.47;;;4.17;;
2434;SDS011;1228;51.022;6.764;2023-04-25T12:35:46;4.87;;;4.47;;
2434;SDS011;1228;51.022;6.764;2023-04-25T12:38:19;4.53;;;4.33;;
2434;SDS011;1228;51.022;6.764;2023-04-25T12:40:46;4.47;;;4.10;;
2434;SDS011;1228;51.022;6.764;2023-04-25T12:43:11;5.07;;;4.03;;
2434;SDS011;1228;51.022;6.764;2023-04-25T12:45:37;4.20;;;3.90;;
2434;SDS011;1228;51.022;6.764;2023-04-25T12:48:03;4.70;;;3.93;;
2434;SDS011;1228;51.022;6.764;2023-04-25T12:50:28;4.30;;;3.90;;
2434;SDS011;1228;51.022;6.764;2023-04-25T12:52:54;4.03;;;3.83;;
2434;SDS011;1228;51.022;6.764;2023-04-25T12:55:20;3.80;;;3.60;;
2434;SDS011;1228;51.022;6.764;2023-04-25T12:57:45;3.80;;;3.60;;
2434;SDS011;1228;51.022;6.764;2023-04-25T13:00:11;4.10;;;3.70;;
2434;SDS011;1228;51.022;6.764;2023-04-25T13:02:39;3.60;;;3.40;;
2434;SDS011;1228;51.022;6.764;2023-04-25T13:05:05;3.50;;;3.30;;
2434;SDS011;1228;51.022;6.764;2023-04-25T13:07:31;4.03;;;3.73;;
2434;SDS011;1228;51.022;6.764;2023-04-25T13:09:57;3.50;;;3.20;;
2434;SDS011;1228;51.022;6.764;2023-04-25T13:12:24;3.87;;;3.57;;
2434;SDS011;1228;51.022;6.764;2023-04-25T13:14:50;3.70;;;3.50;;
2434;SDS011;1228;51.022;6.764;2023-04-25T13:17:16;4.03;;;3.73;;
2434;SDS011;1228;51.022;6.764;2023-04-25T13:19:41;3.73;;;3.53;;
2434;SDS011;1228;51.022;6.764;2023-04-25T13:22:07;4.00;;;3.80;;
2434;SDS011;1228;51.022;6.764;2023-04-25T13:24:32;5.33;;;3.77;;
2434;SDS011;1228;51.022;6.764;2023-04-25T13:26:58;3.60;;;3.40;;
2434;SDS011;1228;51.022;6.764;2023-04-25T13:29:23;3.90;;;3.60;;
2434;SDS011;1228;51.022;6.764;2023-04-25T13:31:49;3.87;;;3.67;;
2434;SDS011;1228;51.022;6.764;2023-04-25T13:34:15;3.63;;;3.43;;
2434;SDS011;1228;51.022;6.764;2023-04-25T13:36:40;4.10;;;3.90;;
2434;SDS011;1228;51.022;6.764;2023-04-25T13:39:06;3.80;;;3.53;;
2434;SDS011;1228;51.022;6.764;2023-04-25T13:41:32;3.73;;;3.50;;
2434;SDS011;1228;51.022;6.764;2023-04-25T13:43:57;3.80;;;3.60;;
2434;SDS011;1228;51.022;6.764;2023-04-25T13:46:23;7.47;;;4.00;;
2434;SDS011;1228;51.022;6.764;2023-04-25T13:48:49;4.17;;;3.80;;
2434;SDS011;1228;51.022;6.764;2023-04-25T13:51:16;5.20;;;4.90;;
2434;SDS011;1228;51.022;6.764;2023-04-25T13:53:42;3.80;;;3.60;;
2434;SDS011;1228;51.022;6.764;2023-04-25T13:56:08;4.10;;;3.90;;
2434;SDS011;1228;51.022;6.764;2023-04-25T13:58:35;3.97;;;3.60;;
2434;SDS011;1228;51.022;6.764;2023-04-25T14:01:01;3.90;;;3.60;;
2434;SDS011;1228;51.022;6.764;2023-04-25T14:03:28;3.50;;;3.40;;
2434;SDS011;1228;51.022;6.764;2023-04-25T14:05:54;3.30;;;3.20;;
2434;SDS011;1228;51.022;6.764;2023-04-25T14:08:20;4.87;;;3.50;;
2434;SDS011;1228;51.022;6.764;2023-04-25T14:10:45;3.93;;;3.40;;
2434;SDS011;1228;51.022;6.764;2023-04-25T14:13:11;3.83;;;3.63;;
2434;SDS011;1228;51.022;6.764;2023-04-25T14:15:36;3.70;;;3.40;;
2434;SDS011;1228;51.022;6.764;2023-04-25T14:18:02;3.90;;;3.63;;
2434;SDS011;1228;51.022;6.764;2023-04-25T14:20:28;4.03;;;3.83;;
2434;SDS011;1228;51.022;6.764;2023-04-25T14:22:54;4.67;;;3.80;;
2434;SDS011;1228;51.022;6.764;2023-04-25T14:25:21;5.30;;;3.93;;
2434;SDS011;1228;51.022;6.764;2023-04-25T14:27:47;3.67;;;3.53;;
2434;SDS011;1228;51.022;6.764;2023-04-25T14:30:15;4.10;;;3.80;;
2434;SDS011;1228;51.022;6.764;2023-04-25T14:32:41;3.70;;;3.50;;
2434;SDS011;1228;51.022;6.764;2023-04-25T14:35:07;4.03;;;3.83;;
2434;SDS011;1228;51.022;6.764;2023-04-25T14:37:34;4.53;;;4.13;;
2434;SDS011;1228;51.022;6.764;2023-04-25T14:39:59;4.00;;;3.80;;
2434;SDS011;1228;51.022;6.764;2023-04-25T14:42:25;5.53;;;4.00;;
2434;SDS011;1228;51.022;6.764;2023-04-25T14:44:50;4.80;;;3.93;;
2434;SDS011;1228;51.022;6.764;2023-04-25T14:47:16;3.97;;;3.77;;
2434;SDS011;1228;51.022;6.764;2023-04-25T14:49:41;3.80;;;3.60;;
2434;SDS011;1228;51.022;6.764;2023-04-25T14:52:07;4.10;;;3.60;;
2434;SDS011;1228;51.022;6.764;2023-04-25T14:54:33;3.83;;;3.63;;
2434;SDS011;1228;51.022;6.764;2023-04-25T14:56:58;4.00;;;3.80;;
2434;SDS011;1228;51.022;6.764;2023-04-25T14:59:24;3.87;;;3.57;;
2434;SDS011;1228;51.022;6.764;2023-04-25T15:01:50;4.00;;;3.80;;
2434;SDS011;1228;51.022;6.764;2023-04-25T15:04:16;4.00;;;3.80;;
2434;SDS011;1228;51.022;6.764;2023-04-25T15:06:42;4.07;;;3.87;;
2434;SDS011;1228;51.022;6.764;2023-04-25T15:09:08;3.77;;;3.53;;
2434;SDS011;1228;51.022;6.764;2023-04-25T15:11:35;3.70;;;3.50;;
2434;SDS011;1228;51.022;6.764;2023-04-25T15:14:01;4.10;;;3.80;;
2434;SDS011;1228;51.022;6.764;2023-04-25T15:16:27;6.90;;;4.00;;
2434;SDS011;1228;51.022;6.764;2023-04-25T15:18:52;3.80;;;3.60;;
2434;SDS011;1228;51.022;6.764;2023-04-25T15:21:18;4.37;;;4.00;;
2434;SDS011;1228;51.022;6.764;2023-04-25T15:23:44;5.10;;;3.60;;
2434;SDS011;1228;51.022;6.764;2023-04-25T15:26:09;5.33;;;4.00;;